Bromham, United Kingdom
Current Conditions -  °F | °C
As of 5:50 PM on Thursday 20 Nov 2014 (Local Time) from EGTC Reporting Station
Light Fog Light Fog  
Wind Chill: 39°   Ceiling: Unl
Heat Index: 43°   Visibility: 1.2mi
Dew Point: 43°   Wind: 6mph
Humidity: 100%   Direction: 50°NE
Pressure: 30.24"   Gusts: NA
Location:  52.15°N, 0.53°W
Report Text: EGTC 201750Z 05005KT 2000 BCFG NSC 06/06 Q1024
Loading
Personal Weather Stations






























Interactive Weather Map New forecast layout! Learn more

10-Day Weather Forecast

Advertisements
Track Severe Weather on mobile